Time;durP1;ratioP1;P1;durP2;ratioP2;P2;SDS_P1;SDS_P2;PMS_P1;PMS_P2;Temp;Humidity;BMP_temperature;BMP_pressure;BME280_temperature;BME280_humidity;BME280_pressure;Samples;Min_cycle;Max_cycle;Signal;HPM_P1;HPM_P2
2022/01/18 00:01:33;;;;;;;21.42;13.90;;;;;;;2.00;100.00;98926.16;1645698;87;21076;-71
2022/01/18 00:04:00;;;;;;;20.80;12.70;;;;;;;2.00;100.00;98929.52;1645832;87;21481;-71
2022/01/18 00:06:27;;;;;;;22.22;13.55;;;;;;;2.00;100.00;98933.78;1645789;86;21131;-71
2022/01/18 00:08:54;;;;;;;18.87;12.45;;;;;;;2.02;100.00;98937.09;1645648;86;21545;-71
2022/01/18 00:11:24;;;;;;;18.87;11.45;;;;;;;2.00;100.00;98937.58;1645720;86;21076;-71
2022/01/18 00:13:58;;;;;;;17.70;11.53;;;;;;;1.93;100.00;98942.50;1645715;86;21714;-70
2022/01/18 00:16:28;;;;;;;19.65;12.37;;;;;;;1.89;100.00;98943.48;1646608;86;21501;-70
2022/01/18 00:18:58;;;;;;;19.05;12.45;;;;;;;1.91;100.00;98937.91;1645909;86;21056;-71
2022/01/18 00:21:35;;;;;;;19.40;12.40;;;;;;;1.94;100.00;98947.95;1645673;87;21009;-72
2022/01/18 00:23:58;;;;;;;21.10;13.00;;;;;;;1.91;100.00;98936.64;1646700;86;21100;-71
2022/01/18 00:26:30;;;;;;;21.50;13.85;;;;;;;1.92;100.00;98939.11;1645935;87;21525;-71
2022/01/18 00:29:06;;;;;;;17.87;12.23;;;;;;;1.96;100.00;98934.77;1645546;87;21045;-71
2022/01/18 00:31:57;;;;;;;21.00;13.15;;;;;;;1.97;100.00;98937.70;1645235;87;21560;-70
2022/01/18 00:34:30;;;;;;;22.25;13.32;;;;;;;1.96;100.00;98947.00;1646830;86;21100;-71
2022/01/18 00:36:57;;;;;;;20.45;12.82;;;;;;;2.03;100.00;98937.49;1645685;84;21552;-71
2022/01/18 00:39:21;;;;;;;18.62;11.53;;;;;;;1.98;100.00;98938.90;1646289;86;21595;-69
2022/01/18 00:41:48;;;;;;;16.90;10.25;;;;;;;2.00;100.00;98943.93;1645772;86;21521;-70
2022/01/18 00:44:15;;;;;;;14.73;9.65;;;;;;;2.01;100.00;98943.06;1645464;87;21159;-71
2022/01/18 00:46:43;;;;;;;15.10;9.53;;;;;;;1.99;100.00;98944.38;1645853;87;21516;-68
2022/01/18 00:49:13;;;;;;;15.53;9.30;;;;;;;1.98;100.00;98942.70;1645620;87;21548;-70
2022/01/18 00:51:44;;;;;;;14.90;9.55;;;;;;;2.02;100.00;98942.16;1645678;87;21072;-70
2022/01/18 00:54:21;;;;;;;11.35;8.35;;;;;;;2.02;100.00;98940.90;1645531;86;21112;-70
2022/01/18 00:56:43;;;;;;;11.25;7.90;;;;;;;2.08;100.00;98940.69;1646621;86;21100;-70
2022/01/18 00:59:09;;;;;;;11.50;7.30;;;;;;;2.07;100.00;98936.92;1645389;87;21060;-70
2022/01/18 01:01:37;;;;;;;11.20;7.90;;;;;;;1.98;100.00;98946.95;1645624;87;21143;-69
2022/01/18 01:04:06;;;;;;;10.93;7.20;;;;;;;2.06;100.00;98951.78;1645688;87;21573;-70
2022/01/18 01:06:35;;;;;;;9.60;6.50;;;;;;;2.09;100.00;98958.86;1645454;87;21591;-70
2022/01/18 01:09:03;;;;;;;9.08;6.05;;;;;;;2.12;100.00;98959.18;1645512;86;21040;-71
2022/01/18 01:11:36;;;;;;;12.95;8.20;;;;;;;2.03;100.00;98959.06;1645395;87;21081;-71
2022/01/18 01:14:02;;;;;;;14.70;9.58;;;;;;;2.02;100.00;98961.20;1646163;86;21041;-72
2022/01/18 01:33:14;;;;;;;47.93;22.10;;;;;;;1.83;100.00;98978.77;1645625;87;21076;-71
2022/01/18 01:35:37;;;;;;;40.43;19.90;;;;;;;1.92;100.00;98983.97;1648906;86;21060;-71
2022/01/18 01:45:49;;;;;;;41.68;19.02;;;;;;;1.79;100.00;98997.05;1645379;87;21135;-72
2022/01/18 01:48:17;;;;;;;53.15;23.15;;;;;;;1.77;100.00;99011.94;1645545;86;21678;-71
2022/01/18 01:50:50;;;;;;;67.12;29.20;;;;;;;1.76;100.00;99009.00;1645267;87;21088;-70
2022/01/18 01:53:18;;;;;;;62.85;28.32;;;;;;;1.72;100.00;99004.91;1625283;87;21056;-72
2022/01/18 01:55:46;;;;;;;53.55;23.67;;;;;;;1.67;100.00;99007.59;1645462;87;21069;-72
2022/01/18 01:58:14;;;;;;;48.38;20.70;;;;;;;1.66;100.00;99020.32;1645459;87;21093;-71
2022/01/18 02:00:51;;;;;;;36.95;17.12;;;;;;;1.74;100.00;99024.71;1645450;87;21024;-71
2022/01/18 02:03:18;;;;;;;42.13;17.77;;;;;;;1.65;100.00;99026.28;1624643;86;21481;-74
2022/01/18 02:05:47;;;;;;;41.25;19.37;;;;;;;1.63;100.00;99040.28;1645312;87;21592;-71
2022/01/18 02:08:15;;;;;;;43.28;18.70;;;;;;;1.66;100.00;99036.36;1645511;87;21143;-71
2022/01/18 02:10:44;;;;;;;45.23;20.00;;;;;;;1.63;100.00;99041.99;1645257;87;21084;-71
2022/01/18 02:13:12;;;;;;;37.75;16.93;;;;;;;1.70;100.00;99037.92;1645728;86;21068;-71
2022/01/18 02:16:09;;;;;;;33.13;15.98;;;;;;;1.75;100.00;99035.27;1645292;87;21532;-71
2022/01/18 02:23:43;;;;;;;27.77;13.80;;;;;;;1.55;100.00;99040.51;1645752;86;21545;-71
2022/01/18 02:26:10;;;;;;;24.95;13.08;;;;;;;1.58;100.00;99037.04;1645309;87;21095;-72
2022/01/18 02:28:37;;;;;;;20.88;11.28;;;;;;;1.57;100.00;99045.09;1645619;87;21060;-72
2022/01/18 02:31:05;;;;;;;21.77;11.45;;;;;;;1.58;100.00;99049.30;1645585;86;21104;-72
2022/01/18 02:33:32;;;;;;;20.45;11.08;;;;;;;1.53;100.00;99046.06;1669949;86;21064;-74
2022/01/18 02:35:58;;;;;;;19.50;9.93;;;;;;;1.39;100.00;99054.09;1645536;87;21541;-74
2022/01/18 02:38:25;;;;;;;21.02;10.18;;;;;;;1.41;100.00;99057.85;1645426;87;21080;-72
2022/01/18 02:40:53;;;;;;;17.27;8.75;;;;;;;1.41;100.00;99056.58;1645544;86;21052;-74
2022/01/18 02:45:58;;;;;;;17.62;7.55;;;;;;;1.44;100.00;99051.84;1650652;85;21121;-74
2022/01/18 02:48:26;;;;;;;10.72;6.47;;;;;;;1.42;100.00;99058.67;1645604;87;21005;-74
2022/01/18 02:50:53;;;;;;;11.83;6.25;;;;;;;1.39;100.00;99055.80;1645226;87;21060;-74
2022/01/18 02:53:20;;;;;;;10.05;5.97;;;;;;;1.35;100.00;99051.70;1645458;86;21094;-75
2022/01/18 02:55:52;;;;;;;13.40;6.90;;;;;;;1.40;100.00;99056.20;1645197;87;21093;-75
2022/01/18 02:58:26;;;;;;;13.83;6.40;;;;;;;1.40;100.00;99062.09;1645446;87;21097;-73
2022/01/18 03:03:21;;;;;;;10.10;5.20;;;;;;;1.37;100.00;99058.38;1628751;87;21064;-74
2022/01/18 03:05:46;;;;;;;6.55;4.22;;;;;;;1.43;100.00;99055.28;1645503;86;21072;-73
2022/01/18 03:08:15;;;;;;;4.03;2.60;;;;;;;1.45;100.00;99053.52;1645783;86;21087;-74
2022/01/18 03:10:44;;;;;;;4.45;3.02;;;;;;;1.44;100.00;99057.77;1645320;86;21556;-74
2022/01/18 03:13:11;;;;;;;4.55;2.87;;;;;;;1.40;100.00;99057.48;1645542;87;21521;-74
2022/01/18 03:15:38;;;;;;;8.13;2.87;;;;;;;1.38;100.00;99057.52;1645315;87;21024;-75
2022/01/18 03:18:07;;;;;;;7.12;3.22;;;;;;;1.36;100.00;99063.06;1645344;87;21113;-73
2022/01/18 03:20:34;;;;;;;7.72;3.55;;;;;;;1.41;100.00;99066.72;1645507;87;21025;-75
2022/01/18 03:23:01;;;;;;;7.75;3.37;;;;;;;1.48;100.00;99073.70;1645540;86;22188;-73
2022/01/18 03:25:38;;;;;;;11.45;4.55;;;;;;;1.42;100.00;99079.81;1645308;87;21077;-72
2022/01/18 03:28:05;;;;;;;8.28;4.42;;;;;;;1.39;100.00;99088.31;1647030;86;21049;-73
2022/01/18 03:30:40;;;;;;;10.53;5.20;;;;;;;1.36;100.00;99091.41;1645382;86;21065;-73
2022/01/18 03:33:11;;;;;;;8.15;4.50;;;;;;;1.32;100.00;99095.72;1645633;87;21037;-74
2022/01/18 03:35:38;;;;;;;10.00;4.97;;;;;;;1.36;100.00;99093.94;1645392;87;21635;-74
2022/01/18 03:38:06;;;;;;;8.05;4.20;;;;;;;1.40;100.00;99098.86;1645429;87;21140;-74
2022/01/18 03:40:33;;;;;;;7.75;4.22;;;;;;;1.44;100.00;99100.88;1645631;87;21532;-74
2022/01/18 03:43:02;;;;;;;9.43;4.30;;;;;;;1.38;100.00;99104.42;1645584;86;21112;-74
2022/01/18 03:45:39;;;;;;;7.80;3.77;;;;;;;1.39;100.00;99103.53;1645469;86;21095;-74
2022/01/18 03:48:05;;;;;;;6.03;3.30;;;;;;;1.21;100.00;99115.47;1646279;86;21084;-73
2022/01/18 03:50:31;;;;;;;9.45;3.85;;;;;;;1.27;100.00;99114.47;1645523;87;21061;-72
2022/01/18 03:52:58;;;;;;;7.80;3.42;;;;;;;1.20;100.00;99108.75;1645704;87;21029;-72
2022/01/18 03:55:24;;;;;;;6.85;3.25;;;;;;;1.20;100.00;99117.63;1645652;86;21041;-73
2022/01/18 03:57:51;;;;;;;6.50;2.90;;;;;;;1.07;100.00;99117.11;1645345;87;21115;-73
2022/01/18 04:00:24;;;;;;;6.58;3.15;;;;;;;1.10;100.00;99117.48;1645733;87;21556;-72
2022/01/18 04:02:53;;;;;;;5.67;3.02;;;;;;;1.07;100.00;99125.98;1645663;87;21140;-71
2022/01/18 04:05:20;;;;;;;7.05;2.95;;;;;;;1.04;100.00;99126.08;1669750;85;21057;-73
2022/01/18 04:07:50;;;;;;;7.75;4.00;;;;;;;1.03;100.00;99131.19;1645824;87;21485;-72
2022/01/18 04:10:17;;;;;;;6.78;3.25;;;;;;;0.96;100.00;99135.16;1669991;85;21505;-72
2022/01/18 04:12:44;;;;;;;7.35;3.52;;;;;;;0.94;100.00;99133.09;1645342;87;21021;-73
2022/01/18 04:15:14;;;;;;;7.50;3.60;;;;;;;0.98;100.00;99142.72;1645629;87;21040;-72
2022/01/18 04:25:55;;;;;;;9.08;3.70;;;;;;;0.81;100.00;99149.48;1645819;86;21088;-71
2022/01/18 04:28:28;;;;;;;5.85;2.85;;;;;;;0.72;100.00;99149.29;1647065;84;21057;-73
2022/01/18 04:30:47;;;;;;;5.97;2.87;;;;;;;0.59;100.00;99153.02;1647321;86;21552;-72
2022/01/18 04:33:15;;;;;;;6.28;3.12;;;;;;;0.46;100.00;99172.73;1645450;87;21056;-73
2022/01/18 04:35:42;;;;;;;5.67;2.55;;;;;;;0.44;100.00;99169.41;1645753;87;21084;-73
2022/01/18 04:38:09;;;;;;;5.92;2.83;;;;;;;0.39;100.00;99175.85;1645510;86;21104;-72
2022/01/18 04:40:40;;;;;;;8.30;3.67;;;;;;;0.42;100.00;99173.67;1645657;86;21088;-72
2022/01/18 04:43:14;;;;;;;7.47;3.65;;;;;;;0.36;100.00;99180.15;1646018;86;21028;-73
2022/01/18 04:48:31;;;;;;;9.15;3.20;;;;;;;0.19;100.00;99178.02;1645786;87;21592;-73
2022/01/18 04:51:11;;;;;;;8.35;3.17;;;;;;;0.03;100.00;99171.66;1645818;87;21080;-75
2022/01/18 04:53:43;;;;;;;8.73;3.50;;;;;;;-0.04;100.00;99198.77;1645693;87;21116;-73
2022/01/18 04:56:15;;;;;;;9.33;3.70;;;;;;;-0.15;100.00;99193.13;1645608;87;21048;-75
2022/01/18 04:58:40;;;;;;;7.15;3.10;;;;;;;-0.18;100.00;99195.70;1646194;86;21064;-74
2022/01/18 05:01:08;;;;;;;5.87;2.90;;;;;;;-0.25;100.00;99200.89;1645828;87;21025;-73
2022/01/18 05:03:36;;;;;;;3.75;2.40;;;;;;;-0.26;100.00;99209.80;1645750;87;21060;-75
2022/01/18 05:06:12;;;;;;;4.75;2.45;;;;;;;-0.33;100.00;99200.22;1669580;86;21073;-74
2022/01/18 05:08:39;;;;;;;8.77;2.50;;;;;;;-0.42;100.00;99199.16;1645975;86;21045;-73
2022/01/18 05:11:08;;;;;;;7.00;2.22;;;;;;;-0.49;100.00;99212.33;1645443;87;21060;-74
2022/01/18 05:19:03;;;;;;;4.75;2.40;;;;;;;-0.70;100.00;99226.23;1645807;86;21056;-73
2022/01/18 05:21:31;;;;;;;6.65;2.42;;;;;;;-0.72;100.00;99229.22;1646923;86;21077;-73
2022/01/18 05:23:55;;;;;;;5.90;2.98;;;;;;;-0.76;100.00;99223.81;1646009;86;21100;-73
2022/01/18 05:26:23;;;;;;;7.00;3.10;;;;;;;-0.78;100.00;99225.54;1645652;87;21497;-73
2022/01/18 05:28:51;;;;;;;10.95;3.58;;;;;;;-0.73;100.00;99230.09;1645789;87;21064;-73
2022/01/18 05:31:18;;;;;;;10.68;4.45;;;;;;;-0.75;100.00;99225.91;1645754;86;21581;-73
2022/01/18 05:33:47;;;;;;;13.05;4.28;;;;;;;-0.69;100.00;99224.53;1645488;87;21033;-72
2022/01/18 05:36:14;;;;;;;11.95;4.37;;;;;;;-0.72;100.00;99220.38;1645677;86;21089;-73
2022/01/18 05:38:41;;;;;;;9.15;4.10;;;;;;;-0.65;100.00;99230.78;1645636;86;21132;-74
2022/01/18 05:41:10;;;;;;;7.45;3.80;;;;;;;-0.66;100.00;99222.78;1645685;87;21524;-74
2022/01/18 05:43:38;;;;;;;6.78;3.70;;;;;;;-0.64;100.00;99213.91;1645652;87;21116;-74
2022/01/18 05:46:05;;;;;;;9.60;4.10;;;;;;;-0.63;100.00;99231.58;1645575;86;21572;-73
2022/01/18 05:48:32;;;;;;;10.32;4.25;;;;;;;-0.58;100.00;99231.92;1645615;87;21091;-73
2022/01/18 05:50:59;;;;;;;9.33;4.37;;;;;;;-0.57;100.00;99223.03;1645803;87;21523;-73
2022/01/18 05:53:30;;;;;;;14.07;5.05;;;;;;;-0.52;100.00;99221.70;1645727;86;21053;-73
2022/01/18 05:55:59;;;;;;;7.85;4.00;;;;;;;-0.43;100.00;99221.50;1645575;87;21064;-72
2022/01/18 05:58:26;;;;;;;7.30;3.60;;;;;;;-0.35;100.00;99223.44;1645646;86;21020;-72
2022/01/18 06:00:54;;;;;;;7.65;3.17;;;;;;;-0.25;100.00;99228.70;1649955;86;21000;-73
2022/01/18 06:03:32;;;;;;;11.25;4.37;;;;;;;-0.28;100.00;99236.81;1660057;86;21112;-73
2022/01/18 06:08:43;;;;;;;7.37;3.55;;;;;;;-0.11;100.00;99247.84;1700765;83;21020;-72
2022/01/18 06:11:10;;;;;;;8.23;3.70;;;;;;;-0.12;100.00;99255.01;1711401;83;21512;-72
2022/01/18 06:13:37;;;;;;;7.58;3.52;;;;;;;-0.09;100.00;99251.16;1718387;83;21029;-74
2022/01/18 06:16:05;;;;;;;9.58;3.92;;;;;;;-0.04;100.00;99255.27;1714871;83;21052;-74
2022/01/18 06:18:32;;;;;;;7.60;2.98;;;;;;;-0.02;100.00;99254.80;1704626;83;21047;-73
2022/01/18 06:20:58;;;;;;;7.85;2.70;;;;;;;0.02;100.00;99259.38;1710860;83;21048;-72
2022/01/18 06:23:25;;;;;;;9.43;3.40;;;;;;;0.12;100.00;99254.92;1716944;83;21024;-73
2022/01/18 06:25:53;;;;;;;7.20;2.90;;;;;;;0.15;100.00;99255.70;1706031;83;21074;-73
2022/01/18 06:28:21;;;;;;;8.48;2.95;;;;;;;0.23;100.00;99258.51;1706110;83;21564;-73
2022/01/18 06:30:47;;;;;;;7.70;3.50;;;;;;;0.22;100.00;99258.92;1706592;83;21516;-73
2022/01/18 06:33:14;;;;;;;11.73;4.70;;;;;;;0.27;100.00;99268.97;1684006;83;21019;-73
2022/01/18 06:35:41;;;;;;;12.03;5.70;;;;;;;0.31;100.00;99283.22;1694915;83;21162;-74
2022/01/18 06:38:08;;;;;;;12.98;6.50;;;;;;;0.36;100.00;99287.73;1699689;83;21091;-71
2022/01/18 06:40:35;;;;;;;11.50;6.83;;;;;;;0.34;100.00;99292.00;1705130;83;21011;-73
2022/01/18 06:43:03;;;;;;;8.15;5.60;;;;;;;0.40;100.00;99299.45;1696840;83;21692;-73
2022/01/18 06:45:31;;;;;;;9.93;5.08;;;;;;;0.32;100.00;99303.85;1696518;83;21059;-74
2022/01/18 06:47:58;;;;;;;11.90;5.92;;;;;;;0.37;100.00;99299.53;1697084;83;21040;-74
2022/01/18 06:50:25;;;;;;;8.18;4.12;;;;;;;0.27;100.00;99303.14;1694348;83;21459;-73
2022/01/18 06:52:52;;;;;;;8.68;4.10;;;;;;;0.22;100.00;99307.00;1715082;83;21543;-73
2022/01/18 06:55:18;;;;;;;5.58;3.35;;;;;;;0.19;100.00;99299.50;1700488;83;21513;-72
2022/01/18 06:57:45;;;;;;;7.08;3.85;;;;;;;0.10;100.00;99296.73;1708709;83;21024;-72
2022/01/18 07:00:13;;;;;;;8.63;3.52;;;;;;;0.07;100.00;99300.58;1706471;83;21108;-72
2022/01/18 07:02:40;;;;;;;7.67;3.80;;;;;;;0.19;100.00;99304.11;1706292;83;21099;-73
2022/01/18 07:05:08;;;;;;;11.43;3.52;;;;;;;0.28;100.00;99301.81;1706307;83;21452;-72
2022/01/18 07:07:35;;;;;;;6.45;3.00;;;;;;;0.45;100.00;99306.53;1698957;83;21047;-73
2022/01/18 07:10:02;;;;;;;7.72;3.00;;;;;;;0.53;100.00;99319.02;1693888;82;21048;-72
2022/01/18 07:12:33;;;;;;;8.23;3.42;;;;;;;0.59;100.00;99307.49;1698385;83;21095;-72
2022/01/18 07:14:57;;;;;;;6.83;3.22;;;;;;;0.71;100.00;99310.16;1694173;83;21067;-73
2022/01/18 07:17:26;;;;;;;5.33;3.12;;;;;;;0.75;100.00;99321.88;1657363;86;21086;-73
2022/01/18 07:19:52;;;;;;;6.70;3.20;;;;;;;0.79;100.00;99324.73;1654261;86;21045;-73
2022/01/18 07:22:19;;;;;;;4.08;2.33;;;;;;;0.82;100.00;99322.15;1657901;86;21055;-74
2022/01/18 07:24:47;;;;;;;4.08;2.45;;;;;;;0.78;100.00;99320.55;1659647;85;21577;-72
2022/01/18 07:27:17;;;;;;;3.45;2.10;;;;;;;0.89;100.00;99330.02;1662090;86;21099;-73
2022/01/18 07:29:44;;;;;;;5.55;2.52;;;;;;;1.08;100.00;99321.98;1661681;86;21039;-71
2022/01/18 07:32:12;;;;;;;7.10;4.00;;;;;;;1.14;100.00;99329.42;1658772;86;21129;-69
2022/01/18 07:34:48;;;;;;;8.58;4.30;;;;;;;1.38;100.00;99344.02;1657153;86;21590;-70
2022/01/18 07:37:10;;;;;;;10.45;5.30;;;;;;;1.58;100.00;99328.30;1653279;86;21105;-69
2022/01/18 07:39:37;;;;;;;17.15;9.28;;;;;;;1.65;100.00;99335.30;1655695;86;21069;-68
2022/01/18 07:42:05;;;;;;;20.95;10.80;;;;;;;1.37;100.00;99346.59;1658970;85;21034;-69
2022/01/18 07:44:31;;;;;;;16.48;8.68;;;;;;;0.97;100.00;99343.75;1653798;86;21076;-69
2022/01/18 07:46:59;;;;;;;12.35;6.42;;;;;;;0.73;100.00;99354.01;1658937;86;21195;-69
2022/01/18 07:49:26;;;;;;;7.95;2.92;;;;;;;0.54;100.00;99351.06;1700030;83;21020;-70
2022/01/18 07:51:53;;;;;;;2.08;1.42;;;;;;;0.38;100.00;99361.50;1691988;83;21055;-70
2022/01/18 07:54:20;;;;;;;2.27;1.70;;;;;;;0.25;100.00;99377.00;1692338;83;21055;-69
2022/01/18 07:56:48;;;;;;;2.65;1.60;;;;;;;0.10;100.00;99378.97;1685453;84;21102;-72
2022/01/18 07:59:15;;;;;;;2.37;1.37;;;;;;;0.09;100.00;99390.38;1694597;84;21544;-71
2022/01/18 08:01:42;;;;;;;1.65;1.27;;;;;;;0.06;100.00;99399.28;1687580;83;21051;-71
2022/01/18 08:04:09;;;;;;;2.20;1.37;;;;;;;0.06;100.00;99418.25;1699691;83;21087;-70
2022/01/18 08:06:37;;;;;;;2.70;1.57;;;;;;;0.07;100.00;99416.97;1690851;84;21056;-71
2022/01/18 08:09:04;;;;;;;1.92;1.47;;;;;;;0.11;100.00;99424.08;1692861;84;21623;-72
2022/01/18 08:11:31;;;;;;;2.45;1.50;;;;;;;0.05;100.00;99452.02;1698386;83;21059;-72
2022/01/18 08:14:00;;;;;;;4.95;1.72;;;;;;;-0.02;100.00;99464.78;1701052;83;21517;-71
2022/01/18 08:19:01;;;;;;;2.33;1.40;;;;;;;-0.02;100.00;99462.66;1674411;83;21024;-71
2022/01/18 08:21:27;;;;;;;4.22;2.17;;;;;;;0.07;100.00;99457.89;1658586;86;21575;-71
2022/01/18 08:23:54;;;;;;;5.85;2.30;;;;;;;0.13;100.00;99472.52;1659778;85;21017;-71
2022/01/18 08:26:21;;;;;;;2.83;1.70;;;;;;;0.06;100.00;99480.24;1661205;85;21046;-72
2022/01/18 08:28:48;;;;;;;4.10;1.50;;;;;;;-0.19;100.00;99489.95;1657347;85;21093;-71
2022/01/18 08:31:15;;;;;;;3.52;1.80;;;;;;;-0.50;100.00;99481.17;1635294;86;21097;-72
2022/01/18 08:33:42;;;;;;;4.25;1.95;;;;;;;-0.66;100.00;99481.00;1630546;86;21175;-72
2022/01/18 08:36:09;;;;;;;2.90;1.40;;;;;;;-0.77;100.00;99490.01;1657118;86;21556;-71
2022/01/18 08:38:37;;;;;;;4.22;1.80;;;;;;;-0.94;100.00;99503.28;1692612;84;21083;-72
2022/01/18 08:41:04;;;;;;;2.72;1.57;;;;;;;-1.01;100.00;99514.73;1690032;83;21046;-73
2022/01/18 08:43:31;;;;;;;3.20;1.50;;;;;;;-1.06;100.00;99509.33;1691149;83;21111;-74
2022/01/18 08:46:00;;;;;;;4.08;1.95;;;;;;;-1.10;100.00;99529.99;1656274;86;21039;-73
2022/01/18 08:48:27;;;;;;;2.60;1.50;;;;;;;-1.18;100.00;99528.42;1655033;86;21107;-71
2022/01/18 08:50:54;;;;;;;3.17;1.80;;;;;;;-1.23;100.00;99528.05;1652598;86;21040;-71
2022/01/18 08:53:21;;;;;;;3.08;1.60;;;;;;;-1.07;100.00;99531.23;1655254;86;21072;-70
2022/01/18 08:55:48;;;;;;;3.10;1.82;;;;;;;-1.24;100.00;99548.26;1656615;86;21219;-71
2022/01/18 08:58:15;;;;;;;3.95;1.77;;;;;;;-1.24;100.00;99542.81;1658700;86;21039;-73
2022/01/18 09:00:42;;;;;;;5.37;1.97;;;;;;;-1.24;100.00;99550.78;1662609;85;21049;-70
2022/01/18 09:03:10;;;;;;;4.65;1.82;;;;;;;-1.24;100.00;99551.64;1692142;84;21559;-72
2022/01/18 09:05:38;;;;;;;6.65;2.60;;;;;;;-1.14;100.00;99561.63;1692523;84;21040;-72
2022/01/18 09:08:07;;;;;;;3.92;2.35;;;;;;;-1.11;100.00;99561.17;1703120;84;21056;-71
2022/01/18 09:10:35;;;;;;;3.90;2.10;;;;;;;-1.08;100.00;99567.43;1700963;83;21052;-72
2022/01/18 09:13:03;;;;;;;3.60;2.00;;;;;;;-1.09;100.00;99562.42;1700767;83;21536;-72
2022/01/18 09:15:32;;;;;;;5.40;2.20;;;;;;;-1.23;100.00;99573.94;1700627;83;21029;-71
2022/01/18 09:17:59;;;;;;;4.12;1.95;;;;;;;-1.21;100.00;99569.70;1632054;85;21038;-71
2022/01/18 09:20:26;;;;;;;4.53;1.67;;;;;;;-1.37;100.00;99603.55;1646360;85;21063;-74
2022/01/18 09:22:53;;;;;;;2.30;1.70;;;;;;;-1.58;100.00;99599.12;1636690;84;21087;-72
2022/01/18 09:25:26;;;;;;;5.15;2.37;;;;;;;-1.64;100.00;99591.60;1682875;83;21059;-71
2022/01/18 09:27:53;;;;;;;5.60;2.47;;;;;;;-1.54;100.00;99606.20;1699701;83;21078;-72
2022/01/18 09:30:26;;;;;;;3.50;2.10;;;;;;;-1.49;100.00;99587.66;1696991;83;21098;-72
2022/01/18 09:32:55;;;;;;;4.50;2.17;;;;;;;-1.42;100.00;99599.78;1700887;83;21053;-72
2022/01/18 09:35:23;;;;;;;3.83;1.87;;;;;;;-1.28;100.00;99594.20;1699737;83;21004;-71
2022/01/18 09:37:50;;;;;;;6.20;2.37;;;;;;;-1.28;100.00;99597.13;1684459;83;21062;-72
2022/01/18 09:40:19;;;;;;;3.08;1.82;;;;;;;-1.19;100.00;99607.57;1671798;84;21187;-70
2022/01/18 09:42:52;;;;;;;4.10;2.07;;;;;;;-1.15;100.00;99649.62;1695062;83;21011;-72
2022/01/18 09:45:22;;;;;;;6.30;2.17;;;;;;;-1.14;100.00;99624.33;1689362;83;20991;-71
2022/01/18 09:47:53;;;;;;;3.85;2.00;;;;;;;-1.13;100.00;99629.80;1709273;83;21583;-73
2022/01/18 09:50:27;;;;;;;3.55;1.70;;;;;;;-1.11;100.00;99629.80;1710546;83;21570;-71
2022/01/18 09:52:55;;;;;;;4.30;1.85;;;;;;;-1.15;100.00;99630.67;1705143;83;21047;-71
2022/01/18 09:55:25;;;;;;;3.60;1.82;;;;;;;-1.19;100.00;99655.12;1694289;83;21040;-72
2022/01/18 09:57:57;;;;;;;4.17;1.80;;;;;;;-1.13;100.00;99655.49;1693452;83;21605;-72
2022/01/18 10:00:29;;;;;;;4.47;1.80;;;;;;;-1.17;100.00;99649.63;1694139;83;21068;-70
2022/01/18 10:02:56;;;;;;;2.15;1.80;;;;;;;-0.97;100.00;99655.73;1651368;85;21137;-72
2022/01/18 10:05:28;;;;;;;4.22;1.80;;;;;;;-0.97;100.00;99664.98;1647216;85;21021;-71
2022/01/18 10:08:10;;;;;;;2.67;1.80;;;;;;;-0.81;100.00;99665.25;1674694;85;21597;-70
2022/01/18 10:10:46;;;;;;;3.12;1.77;;;;;;;-0.66;100.00;99670.11;1662707;85;21028;-72
2022/01/18 10:13:32;;;;;;;3.72;2.15;;;;;;;-0.57;100.00;99684.33;1676416;85;21000;-71
2022/01/18 10:16:11;;;;;;;2.40;1.67;;;;;;;-0.56;100.00;99678.87;1689619;84;21071;-70
2022/01/18 10:18:51;;;;;;;2.67;1.90;;;;;;;-0.49;100.00;99685.50;1655802;85;21096;-70
2022/01/18 10:21:45;;;;;;;2.25;1.70;;;;;;;-0.50;100.00;99699.02;1637330;85;21622;-71
2022/01/18 10:24:19;;;;;;;4.97;2.50;;;;;;;-0.34;100.00;99686.59;1647938;86;21482;-71
2022/01/18 10:26:48;;;;;;;7.15;3.10;;;;;;;-0.25;100.00;99688.98;1650351;85;21159;-70
2022/01/18 10:29:19;;;;;;;6.45;2.83;;;;;;;-0.09;100.00;99703.97;1649404;85;21104;-72
2022/01/18 10:37:21;;;;;;;3.00;2.40;;;;;;;-0.44;100.00;99719.16;1651834;86;21509;-70
2022/01/18 10:39:56;;;;;;;2.90;2.10;;;;;;;-0.50;100.00;99709.95;1652540;86;21087;-69
2022/01/18 10:42:28;;;;;;;;;;;;;;;-0.53;100.00;99697.34;1644338;86;21036;-71
2022/01/18 10:45:09;;;;;;;3.42;2.05;;;;;;;-0.69;100.00;99715.66;1656518;85;20106;-71
2022/01/18 10:47:38;;;;;;;3.52;1.90;;;;;;;-0.64;100.00;99706.31;1637959;85;21701;-71
2022/01/18 10:50:13;;;;;;;2.52;1.80;;;;;;;-0.59;100.00;99713.84;1690904;83;21024;-69
2022/01/18 10:52:41;;;;;;;3.83;2.17;;;;;;;-0.83;100.00;99729.70;1689836;83;21120;-70
2022/01/18 10:55:22;;;;;;;4.05;2.10;;;;;;;-0.86;100.00;99736.03;1643297;85;21087;-70
2022/01/18 10:57:51;;;;;;;5.37;2.50;;;;;;;-0.75;100.00;99755.30;1688443;83;21071;-70
2022/01/18 11:00:22;;;;;;;7.33;3.42;;;;;;;-0.77;100.00;99760.39;1647926;85;21000;-70
2022/01/18 11:02:55;;;;;;;5.33;2.45;;;;;;;-0.51;100.00;99751.24;1656272;84;21013;-70
2022/01/18 11:05:29;;;;;;;4.37;2.83;;;;;;;-0.44;100.00;99755.83;1705133;82;21527;-70
2022/01/18 11:08:04;;;;;;;4.20;2.90;;;;;;;-0.41;100.00;99770.55;1661914;84;21740;-71
2022/01/18 11:10:37;;;;;;;4.22;2.83;;;;;;;-0.22;100.00;99785.07;1680937;82;21493;-71
2022/01/18 11:13:13;;;;;;;4.45;2.30;;;;;;;-0.24;100.00;99766.98;1681047;83;21047;-70
2022/01/18 11:15:45;;;;;;;3.83;2.20;;;;;;;-0.38;100.00;99794.95;1651978;84;21097;-72
2022/01/18 11:18:25;;;;;;;5.22;2.40;;;;;;;-0.50;100.00;99781.18;1699500;83;21079;-70
2022/01/18 11:20:47;;;;;;;6.22;3.15;;;;;;;-0.45;100.00;99785.74;1662232;85;21084;-71
2022/01/18 11:23:15;;;;;;;6.72;3.02;;;;;;;-0.39;100.00;99796.22;1747154;82;21047;-70
2022/01/18 11:25:43;;;;;;;7.37;3.42;;;;;;;-0.36;100.00;99794.94;1744989;82;20988;-70
2022/01/18 11:28:11;;;;;;;5.60;3.15;;;;;;;-0.38;100.00;99792.42;1704513;82;21062;-69
2022/01/18 11:30:45;;;;;;;5.65;3.45;;;;;;;-0.26;100.00;99791.45;1712453;82;21513;-71
2022/01/18 11:33:15;;;;;;;7.00;3.75;;;;;;;-0.41;100.00;99800.89;1646077;85;21536;-72
2022/01/18 11:36:02;;;;;;;6.45;3.20;;;;;;;-0.52;100.00;99834.71;1660461;84;21041;-70
2022/01/18 11:38:55;;;;;;;9.10;3.83;;;;;;;-0.73;100.00;99829.00;1656776;84;21114;-70
2022/01/18 11:41:31;;;;;;;12.13;5.15;;;;;;;-0.70;100.00;99818.02;1678785;83;21024;-72
2022/01/18 11:44:13;;;;;;;6.28;3.60;;;;;;;-0.78;100.00;99832.41;1705482;82;21090;-70
2022/01/18 11:46:52;;;;;;;4.45;2.47;;;;;;;-0.80;100.00;99846.32;1693423;82;21540;-71
2022/01/18 11:49:25;;;;;;;4.17;2.30;;;;;;;-0.80;100.00;99846.32;1695412;83;21570;-70
2022/01/18 11:52:05;;;;;;;4.62;2.25;;;;;;;-0.82;100.00;99869.50;1710834;82;21051;-71
2022/01/18 11:54:57;;;;;;;4.87;2.40;;;;;;;-0.83;100.00;99875.42;1717507;81;21042;-69
2022/01/18 11:57:29;;;;;;;4.83;2.20;;;;;;;-0.89;100.00;99878.83;1690076;83;21059;-71
2022/01/18 12:00:00;;;;;;;4.08;1.80;;;;;;;-0.95;100.00;99889.38;1630762;86;21096;-71
2022/01/18 12:02:30;;;;;;;3.87;2.10;;;;;;;-1.06;100.00;99889.03;1689805;84;21078;-71
2022/01/18 12:05:06;;;;;;;3.67;2.12;;;;;;;-1.10;100.00;99896.64;1690436;84;21071;-71
2022/01/18 12:07:37;;;;;;;3.25;2.40;;;;;;;-1.10;100.00;99897.91;1689548;83;21038;-70
2022/01/18 12:10:21;;;;;;;4.17;2.20;;;;;;;-1.18;100.00;99909.75;1694853;82;21122;-70
2022/01/18 12:12:52;;;;;;;5.20;2.52;;;;;;;-1.19;100.00;99901.34;1708675;83;21618;-69
2022/01/18 12:15:26;;;;;;;4.30;2.12;;;;;;;-1.04;100.00;99913.02;1715985;83;21015;-70
2022/01/18 12:18:02;;;;;;;2.95;1.95;;;;;;;-1.13;100.00;99927.81;1717181;81;21063;-69
2022/01/18 12:20:40;;;;;;;;;;;;;;;-1.11;100.00;99921.50;1715085;81;21512;-70
2022/01/18 12:23:10;;;;;;;3.67;1.98;;;;;;;-1.13;100.00;99929.08;1711973;82;20160;-70
2022/01/18 12:26:02;;;;;;;3.62;1.95;;;;;;;-1.10;100.00;99942.94;1702959;83;21497;-70
2022/01/18 12:29:19;;;;;;;2.92;2.10;;;;;;;-1.27;100.00;99935.46;1708219;81;21051;-70
2022/01/18 12:34:40;;;;;;;3.30;1.98;;;;;;;-1.29;100.00;99955.27;1689578;84;21080;-72
2022/01/18 12:37:14;;;;;;;4.37;2.03;;;;;;;-1.36;100.00;99972.10;1673379;84;21110;-70
2022/01/18 12:39:57;;;;;;;4.80;2.10;;;;;;;-1.41;100.00;99974.66;1658056;85;21095;-71
2022/01/18 12:45:01;;;;;;;4.58;2.00;;;;;;;-1.41;100.00;99969.61;1676601;84;21051;-72
2022/01/18 12:47:29;;;;;;;7.90;3.07;;;;;;;-1.37;100.00;99985.59;1683477;84;21166;-71